sensor_id;sensor_type;location;lat;lon;timestamp;temperature;humidity
15259;DHT22;34462;51.368;12.364;2023-03-14T00:01:10;10.80;99.90
15259;DHT22;34462;51.368;12.364;2023-03-14T00:03:40;10.90;99.90
15259;DHT22;34462;51.368;12.364;2023-03-14T00:06:09;10.90;99.90
15259;DHT22;34462;51.368;12.364;2023-03-14T00:08:40;10.80;99.90
15259;DHT22;34462;51.368;12.364;2023-03-14T00:11:11;10.80;99.90
15259;DHT22;34462;51.368;12.364;2023-03-14T00:13:41;10.80;99.90
15259;DHT22;34462;51.368;12.364;2023-03-14T00:16:11;10.80;99.90
15259;DHT22;34462;51.368;12.364;2023-03-14T00:18:40;10.80;99.90
15259;DHT22;34462;51.368;12.364;2023-03-14T00:21:10;10.70;99.90
15259;DHT22;34462;51.368;12.364;2023-03-14T00:23:42;10.80;99.90
15259;DHT22;34462;51.368;12.364;2023-03-14T00:26:12;10.70;99.90
15259;DHT22;34462;51.368;12.364;2023-03-14T00:28:42;10.70;99.90
15259;DHT22;34462;51.368;12.364;2023-03-14T00:31:12;10.70;99.90
15259;DHT22;34462;51.368;12.364;2023-03-14T00:33:43;10.70;99.90
15259;DHT22;34462;51.368;12.364;2023-03-14T00:36:13;10.80;99.90
15259;DHT22;34462;51.368;12.364;2023-03-14T00:38:46;10.80;99.90
15259;DHT22;34462;51.368;12.364;2023-03-14T00:41:16;10.80;99.90
15259;DHT22;34462;51.368;12.364;2023-03-14T00:43:46;10.70;99.90
15259;DHT22;34462;51.368;12.364;2023-03-14T00:46:14;10.80;99.90
15259;DHT22;34462;51.368;12.364;2023-03-14T00:48:44;10.80;99.90
15259;DHT22;34462;51.368;12.364;2023-03-14T00:51:12;10.80;99.90
15259;DHT22;34462;51.368;12.364;2023-03-14T00:53:44;10.90;99.90
15259;DHT22;34462;51.368;12.364;2023-03-14T00:56:12;10.90;99.90
15259;DHT22;34462;51.368;12.364;2023-03-14T00:58:41;10.80;99.90
15259;DHT22;34462;51.368;12.364;2023-03-14T01:01:12;10.80;99.90
15259;DHT22;34462;51.368;12.364;2023-03-14T01:03:42;10.80;99.90
15259;DHT22;34462;51.368;12.364;2023-03-14T01:06:12;10.70;99.90
15259;DHT22;34462;51.368;12.364;2023-03-14T01:08:43;10.70;99.90
15259;DHT22;34462;51.368;12.364;2023-03-14T01:11:13;10.60;99.90
15259;DHT22;34462;51.368;12.364;2023-03-14T01:13:43;10.60;99.90
15259;DHT22;34462;51.368;12.364;2023-03-14T01:16:12;10.70;99.90
15259;DHT22;34462;51.368;12.364;2023-03-14T01:18:43;10.60;99.90
15259;DHT22;34462;51.368;12.364;2023-03-14T01:21:14;10.60;99.90
15259;DHT22;34462;51.368;12.364;2023-03-14T01:23:46;10.70;99.90
15259;DHT22;34462;51.368;12.364;2023-03-14T01:26:17;10.70;99.90
15259;DHT22;34462;51.368;12.364;2023-03-14T01:28:47;10.70;99.90
15259;DHT22;34462;51.368;12.364;2023-03-14T01:31:17;10.70;99.90
15259;DHT22;34462;51.368;12.364;2023-03-14T01:33:46;10.60;99.90
15259;DHT22;34462;51.368;12.364;2023-03-14T01:36:15;10.60;99.90
15259;DHT22;34462;51.368;12.364;2023-03-14T01:38:43;10.70;99.90
15259;DHT22;34462;51.368;12.364;2023-03-14T01:41:15;10.70;99.90
15259;DHT22;34462;51.368;12.364;2023-03-14T01:43:45;10.70;99.90
15259;DHT22;34462;51.368;12.364;2023-03-14T01:46:26;10.80;99.90
15259;DHT22;34462;51.368;12.364;2023-03-14T01:49:07;10.90;99.90
15259;DHT22;34462;51.368;12.364;2023-03-14T01:51:44;10.90;99.90
15259;DHT22;34462;51.368;12.364;2023-03-14T01:54:19;10.90;99.90
15259;DHT22;34462;51.368;12.364;2023-03-14T01:56:57;11.00;99.90
15259;DHT22;34462;51.368;12.364;2023-03-14T01:59:30;11.00;99.90
15259;DHT22;34462;51.368;12.364;2023-03-14T02:02:00;11.00;99.90
15259;DHT22;34462;51.368;12.364;2023-03-14T02:04:32;11.00;99.90
15259;DHT22;34462;51.368;12.364;2023-03-14T02:07:09;11.10;99.90
15259;DHT22;34462;51.368;12.364;2023-03-14T02:09:41;11.00;99.90
15259;DHT22;34462;51.368;12.364;2023-03-14T02:12:15;10.90;99.90
15259;DHT22;34462;51.368;12.364;2023-03-14T02:14:45;10.90;99.90
15259;DHT22;34462;51.368;12.364;2023-03-14T02:17:16;10.80;99.90
15259;DHT22;34462;51.368;12.364;2023-03-14T02:19:57;10.70;99.90
15259;DHT22;34462;51.368;12.364;2023-03-14T02:22:37;10.80;99.90
15259;DHT22;34462;51.368;12.364;2023-03-14T02:25:11;10.70;99.90
15259;DHT22;34462;51.368;12.364;2023-03-14T02:27:46;10.70;99.90
15259;DHT22;34462;51.368;12.364;2023-03-14T02:30:18;10.70;99.90
15259;DHT22;34462;51.368;12.364;2023-03-14T02:32:50;10.70;99.90
15259;DHT22;34462;51.368;12.364;2023-03-14T02:35:24;10.60;99.90
15259;DHT22;34462;51.368;12.364;2023-03-14T02:37:59;10.60;99.90
15259;DHT22;34462;51.368;12.364;2023-03-14T02:40:31;10.60;99.90
15259;DHT22;34462;51.368;12.364;2023-03-14T02:43:01;10.60;99.90
15259;DHT22;34462;51.368;12.364;2023-03-14T02:45:38;10.70;99.90
15259;DHT22;34462;51.368;12.364;2023-03-14T02:48:14;10.70;99.90
15259;DHT22;34462;51.368;12.364;2023-03-14T02:50:46;10.70;99.90
15259;DHT22;34462;51.368;12.364;2023-03-14T02:53:18;10.60;99.90
15259;DHT22;34462;51.368;12.364;2023-03-14T02:55:50;10.60;99.90
15259;DHT22;34462;51.368;12.364;2023-03-14T02:58:20;10.70;99.90
15259;DHT22;34462;51.368;12.364;2023-03-14T03:00:48;10.70;99.90
15259;DHT22;34462;51.368;12.364;2023-03-14T03:03:17;10.70;99.90
15259;DHT22;34462;51.368;12.364;2023-03-14T03:05:48;10.70;99.90
15259;DHT22;34462;51.368;12.364;2023-03-14T03:08:18;10.70;99.90
15259;DHT22;34462;51.368;12.364;2023-03-14T03:10:47;10.70;99.90
15259;DHT22;34462;51.368;12.364;2023-03-14T03:13:16;10.70;99.90
15259;DHT22;34462;51.368;12.364;2023-03-14T03:15:46;10.60;99.90
15259;DHT22;34462;51.368;12.364;2023-03-14T03:18:15;10.70;99.90
15259;DHT22;34462;51.368;12.364;2023-03-14T03:20:43;10.70;99.90
15259;DHT22;34462;51.368;12.364;2023-03-14T03:23:12;10.80;99.90
15259;DHT22;34462;51.368;12.364;2023-03-14T03:25:40;10.80;99.90
15259;DHT22;34462;51.368;12.364;2023-03-14T03:28:09;10.80;99.90
15259;DHT22;34462;51.368;12.364;2023-03-14T03:30:37;10.80;99.90
15259;DHT22;34462;51.368;12.364;2023-03-14T03:33:08;10.80;99.90
15259;DHT22;34462;51.368;12.364;2023-03-14T03:35:44;10.80;99.90
15259;DHT22;34462;51.368;12.364;2023-03-14T03:38:14;10.80;99.90
15259;DHT22;34462;51.368;12.364;2023-03-14T03:40:42;10.80;99.90
15259;DHT22;34462;51.368;12.364;2023-03-14T03:43:11;10.90;99.90
15259;DHT22;34462;51.368;12.364;2023-03-14T03:45:39;10.90;99.90
15259;DHT22;34462;51.368;12.364;2023-03-14T03:48:08;10.90;99.90
15259;DHT22;34462;51.368;12.364;2023-03-14T03:50:36;11.00;99.90
15259;DHT22;34462;51.368;12.364;2023-03-14T03:53:04;10.90;99.90
15259;DHT22;34462;51.368;12.364;2023-03-14T03:55:33;10.90;99.90
15259;DHT22;34462;51.368;12.364;2023-03-14T03:58:01;11.00;99.90
15259;DHT22;34462;51.368;12.364;2023-03-14T04:00:29;11.10;99.90
15259;DHT22;34462;51.368;12.364;2023-03-14T04:02:58;11.10;99.90
15259;DHT22;34462;51.368;12.364;2023-03-14T04:05:28;11.00;99.90
15259;DHT22;34462;51.368;12.364;2023-03-14T04:07:56;11.00;99.90
15259;DHT22;34462;51.368;12.364;2023-03-14T04:10:24;10.90;99.90
15259;DHT22;34462;51.368;12.364;2023-03-14T04:12:53;10.80;99.90
15259;DHT22;34462;51.368;12.364;2023-03-14T04:15:21;10.80;99.90
15259;DHT22;34462;51.368;12.364;2023-03-14T04:17:49;10.80;99.90
15259;DHT22;34462;51.368;12.364;2023-03-14T04:20:17;10.80;99.90
15259;DHT22;34462;51.368;12.364;2023-03-14T04:22:47;10.80;99.90
15259;DHT22;34462;51.368;12.364;2023-03-14T04:25:15;10.80;99.90
15259;DHT22;34462;51.368;12.364;2023-03-14T04:27:47;10.70;99.90
15259;DHT22;34462;51.368;12.364;2023-03-14T04:30:18;10.90;99.90
15259;DHT22;34462;51.368;12.364;2023-03-14T04:32:47;10.80;99.90
15259;DHT22;34462;51.368;12.364;2023-03-14T04:35:15;10.70;99.90
15259;DHT22;34462;51.368;12.364;2023-03-14T04:37:43;10.70;99.90
15259;DHT22;34462;51.368;12.364;2023-03-14T04:40:17;10.70;99.90
15259;DHT22;34462;51.368;12.364;2023-03-14T04:42:45;10.80;99.90
15259;DHT22;34462;51.368;12.364;2023-03-14T04:45:13;10.70;99.90
15259;DHT22;34462;51.368;12.364;2023-03-14T04:47:41;10.70;99.90
15259;DHT22;34462;51.368;12.364;2023-03-14T04:50:10;10.70;99.90
15259;DHT22;34462;51.368;12.364;2023-03-14T04:52:38;10.60;99.90
15259;DHT22;34462;51.368;12.364;2023-03-14T04:55:07;10.60;99.90
15259;DHT22;34462;51.368;12.364;2023-03-14T04:57:36;10.60;99.90
15259;DHT22;34462;51.368;12.364;2023-03-14T05:00:05;10.50;99.90
15259;DHT22;34462;51.368;12.364;2023-03-14T05:02:35;10.50;99.90
15259;DHT22;34462;51.368;12.364;2023-03-14T05:05:04;10.50;99.90
15259;DHT22;34462;51.368;12.364;2023-03-14T05:07:33;10.60;99.90
15259;DHT22;34462;51.368;12.364;2023-03-14T05:10:01;10.60;99.90
15259;DHT22;34462;51.368;12.364;2023-03-14T05:12:30;10.60;99.90
15259;DHT22;34462;51.368;12.364;2023-03-14T05:14:59;10.50;99.90
15259;DHT22;34462;51.368;12.364;2023-03-14T05:17:29;10.50;99.90
15259;DHT22;34462;51.368;12.364;2023-03-14T05:19:57;10.40;99.90
15259;DHT22;34462;51.368;12.364;2023-03-14T05:22:25;10.40;99.90
15259;DHT22;34462;51.368;12.364;2023-03-14T05:24:53;10.20;99.90
15259;DHT22;34462;51.368;12.364;2023-03-14T05:27:23;10.20;99.90
15259;DHT22;34462;51.368;12.364;2023-03-14T05:29:51;10.30;99.90
15259;DHT22;34462;51.368;12.364;2023-03-14T05:32:21;10.30;99.90
15259;DHT22;34462;51.368;12.364;2023-03-14T05:34:49;10.20;99.90
15259;DHT22;34462;51.368;12.364;2023-03-14T05:37:17;10.20;99.90
15259;DHT22;34462;51.368;12.364;2023-03-14T05:39:46;10.20;99.90
15259;DHT22;34462;51.368;12.364;2023-03-14T05:42:15;10.20;99.90
15259;DHT22;34462;51.368;12.364;2023-03-14T05:44:43;10.10;99.90
15259;DHT22;34462;51.368;12.364;2023-03-14T05:47:11;10.20;99.90
15259;DHT22;34462;51.368;12.364;2023-03-14T05:49:40;10.20;99.90
15259;DHT22;34462;51.368;12.364;2023-03-14T05:52:08;10.20;99.90
15259;DHT22;34462;51.368;12.364;2023-03-14T05:54:37;10.30;99.90
15259;DHT22;34462;51.368;12.364;2023-03-14T05:57:05;10.30;99.90
15259;DHT22;34462;51.368;12.364;2023-03-14T05:59:34;10.40;99.90
15259;DHT22;34462;51.368;12.364;2023-03-14T06:02:02;10.40;99.90
15259;DHT22;34462;51.368;12.364;2023-03-14T06:04:30;10.50;99.90
15259;DHT22;34462;51.368;12.364;2023-03-14T06:07:00;10.50;99.90
15259;DHT22;34462;51.368;12.364;2023-03-14T06:09:28;10.60;99.90
15259;DHT22;34462;51.368;12.364;2023-03-14T06:11:56;10.70;99.90
15259;DHT22;34462;51.368;12.364;2023-03-14T06:14:24;10.70;99.90
15259;DHT22;34462;51.368;12.364;2023-03-14T06:16:52;10.80;99.90
15259;DHT22;34462;51.368;12.364;2023-03-14T06:19:21;10.80;99.90
15259;DHT22;34462;51.368;12.364;2023-03-14T06:21:50;10.80;99.90
15259;DHT22;34462;51.368;12.364;2023-03-14T06:24:19;10.80;99.90
15259;DHT22;34462;51.368;12.364;2023-03-14T06:26:47;10.90;99.90
15259;DHT22;34462;51.368;12.364;2023-03-14T06:29:15;10.80;99.90
15259;DHT22;34462;51.368;12.364;2023-03-14T06:31:44;10.80;99.90
15259;DHT22;34462;51.368;12.364;2023-03-14T06:34:12;10.80;99.90
15259;DHT22;34462;51.368;12.364;2023-03-14T06:36:40;10.80;99.90
15259;DHT22;34462;51.368;12.364;2023-03-14T06:39:08;10.90;99.90
15259;DHT22;34462;51.368;12.364;2023-03-14T06:41:37;11.00;99.90
15259;DHT22;34462;51.368;12.364;2023-03-14T06:44:06;10.90;99.90
15259;DHT22;34462;51.368;12.364;2023-03-14T06:46:34;11.00;99.90
15259;DHT22;34462;51.368;12.364;2023-03-14T06:49:02;10.90;99.90
15259;DHT22;34462;51.368;12.364;2023-03-14T06:51:30;10.90;99.90
15259;DHT22;34462;51.368;12.364;2023-03-14T06:53:58;10.90;99.90
15259;DHT22;34462;51.368;12.364;2023-03-14T06:56:26;11.00;99.90
15259;DHT22;34462;51.368;12.364;2023-03-14T06:58:56;11.00;99.90
15259;DHT22;34462;51.368;12.364;2023-03-14T07:01:26;11.00;99.90
15259;DHT22;34462;51.368;12.364;2023-03-14T07:03:57;11.00;99.90
15259;DHT22;34462;51.368;12.364;2023-03-14T07:06:25;11.00;99.90
15259;DHT22;34462;51.368;12.364;2023-03-14T07:08:56;11.00;99.90
15259;DHT22;34462;51.368;12.364;2023-03-14T07:11:24;11.10;99.90
15259;DHT22;34462;51.368;12.364;2023-03-14T07:13:53;11.10;99.90
15259;DHT22;34462;51.368;12.364;2023-03-14T07:16:23;11.10;99.90
15259;DHT22;34462;51.368;12.364;2023-03-14T07:18:55;11.10;99.90
15259;DHT22;34462;51.368;12.364;2023-03-14T07:21:23;11.10;99.90
15259;DHT22;34462;51.368;12.364;2023-03-14T07:23:51;11.10;99.90
15259;DHT22;34462;51.368;12.364;2023-03-14T07:26:19;11.20;99.90
15259;DHT22;34462;51.368;12.364;2023-03-14T07:28:49;11.30;99.90
15259;DHT22;34462;51.368;12.364;2023-03-14T07:31:17;11.30;99.90
15259;DHT22;34462;51.368;12.364;2023-03-14T07:33:46;11.30;99.90
15259;DHT22;34462;51.368;12.364;2023-03-14T07:36:15;11.40;99.90
15259;DHT22;34462;51.368;12.364;2023-03-14T07:38:43;11.50;99.90
15259;DHT22;34462;51.368;12.364;2023-03-14T07:41:11;11.60;99.90
15259;DHT22;34462;51.368;12.364;2023-03-14T07:43:40;11.70;99.90
15259;DHT22;34462;51.368;12.364;2023-03-14T07:46:08;11.70;99.90
15259;DHT22;34462;51.368;12.364;2023-03-14T07:48:36;11.80;99.90
15259;DHT22;34462;51.368;12.364;2023-03-14T07:51:06;11.90;99.90
15259;DHT22;34462;51.368;12.364;2023-03-14T07:53:35;12.00;99.90
15259;DHT22;34462;51.368;12.364;2023-03-14T07:56:03;12.00;99.90
15259;DHT22;34462;51.368;12.364;2023-03-14T07:58:32;11.90;99.90
15259;DHT22;34462;51.368;12.364;2023-03-14T08:01:00;11.90;99.90
15259;DHT22;34462;51.368;12.364;2023-03-14T08:03:30;12.00;99.90
15259;DHT22;34462;51.368;12.364;2023-03-14T08:05:58;12.00;99.90
15259;DHT22;34462;51.368;12.364;2023-03-14T08:08:27;12.00;99.90
15259;DHT22;34462;51.368;12.364;2023-03-14T08:10:55;12.00;99.90
15259;DHT22;34462;51.368;12.364;2023-03-14T08:13:23;12.00;99.90
15259;DHT22;34462;51.368;12.364;2023-03-14T08:15:52;12.00;99.90
15259;DHT22;34462;51.368;12.364;2023-03-14T08:18:20;12.00;99.90
15259;DHT22;34462;51.368;12.364;2023-03-14T08:20:48;12.00;99.90
15259;DHT22;34462;51.368;12.364;2023-03-14T08:23:16;12.20;99.90
15259;DHT22;34462;51.368;12.364;2023-03-14T08:25:48;12.30;99.90
15259;DHT22;34462;51.368;12.364;2023-03-14T08:28:17;12.40;99.90
15259;DHT22;34462;51.368;12.364;2023-03-14T08:30:45;12.40;99.90
15259;DHT22;34462;51.368;12.364;2023-03-14T08:33:14;12.60;99.90
15259;DHT22;34462;51.368;12.364;2023-03-14T08:35:42;12.90;99.90
15259;DHT22;34462;51.368;12.364;2023-03-14T08:38:10;13.00;99.90
15259;DHT22;34462;51.368;12.364;2023-03-14T08:40:38;13.20;99.90
15259;DHT22;34462;51.368;12.364;2023-03-14T08:43:08;13.20;99.90
15259;DHT22;34462;51.368;12.364;2023-03-14T08:45:36;13.40;99.90
15259;DHT22;34462;51.368;12.364;2023-03-14T08:48:05;13.40;99.90
15259;DHT22;34462;51.368;12.364;2023-03-14T08:50:33;13.40;99.90
15259;DHT22;34462;51.368;12.364;2023-03-14T08:53:01;13.50;99.90
15259;DHT22;34462;51.368;12.364;2023-03-14T08:55:29;13.50;99.90
15259;DHT22;34462;51.368;12.364;2023-03-14T08:57:58;13.60;99.90
15259;DHT22;34462;51.368;12.364;2023-03-14T09:00:27;13.70;99.90
15259;DHT22;34462;51.368;12.364;2023-03-14T09:02:55;13.90;99.90
15259;DHT22;34462;51.368;12.364;2023-03-14T09:05:24;13.90;99.90
15259;DHT22;34462;51.368;12.364;2023-03-14T09:07:52;13.80;99.90
15259;DHT22;34462;51.368;12.364;2023-03-14T09:10:20;13.90;99.90
15259;DHT22;34462;51.368;12.364;2023-03-14T09:12:48;14.10;99.90
15259;DHT22;34462;51.368;12.364;2023-03-14T09:15:17;14.20;99.90
15259;DHT22;34462;51.368;12.364;2023-03-14T09:17:47;14.10;99.90
15259;DHT22;34462;51.368;12.364;2023-03-14T09:20:15;14.10;99.90
15259;DHT22;34462;51.368;12.364;2023-03-14T09:22:44;13.90;99.90
15259;DHT22;34462;51.368;12.364;2023-03-14T09:25:12;13.90;99.90
15259;DHT22;34462;51.368;12.364;2023-03-14T09:27:40;13.80;99.90
15259;DHT22;34462;51.368;12.364;2023-03-14T09:30:09;13.80;99.90
15259;DHT22;34462;51.368;12.364;2023-03-14T09:32:38;13.80;99.90
15259;DHT22;34462;51.368;12.364;2023-03-14T09:35:08;13.70;99.90
15259;DHT22;34462;51.368;12.364;2023-03-14T09:37:37;13.60;99.90
15259;DHT22;34462;51.368;12.364;2023-03-14T09:40:06;13.70;99.90
15259;DHT22;34462;51.368;12.364;2023-03-14T09:42:38;13.80;99.90
15259;DHT22;34462;51.368;12.364;2023-03-14T09:45:12;13.80;99.90
15259;DHT22;34462;51.368;12.364;2023-03-14T09:47:45;13.80;99.90
15259;DHT22;34462;51.368;12.364;2023-03-14T09:50:31;13.90;99.90
15259;DHT22;34462;51.368;12.364;2023-03-14T09:53:09;13.90;99.90
15259;DHT22;34462;51.368;12.364;2023-03-14T09:55:42;13.90;99.90
15259;DHT22;34462;51.368;12.364;2023-03-14T09:58:16;14.00;99.90
15259;DHT22;34462;51.368;12.364;2023-03-14T10:00:48;14.10;99.90
15259;DHT22;34462;51.368;12.364;2023-03-14T10:03:24;14.00;99.90
15259;DHT22;34462;51.368;12.364;2023-03-14T10:05:56;14.10;99.90
15259;DHT22;34462;51.368;12.364;2023-03-14T10:08:25;14.10;99.90
15259;DHT22;34462;51.368;12.364;2023-03-14T10:10:53;14.10;99.90
15259;DHT22;34462;51.368;12.364;2023-03-14T10:13:23;14.10;99.90
15259;DHT22;34462;51.368;12.364;2023-03-14T10:15:55;14.10;99.90
15259;DHT22;34462;51.368;12.364;2023-03-14T10:18:29;13.90;99.90
15259;DHT22;34462;51.368;12.364;2023-03-14T10:21:09;13.80;99.90
15259;DHT22;34462;51.368;12.364;2023-03-14T10:23:48;13.70;99.90
15259;DHT22;34462;51.368;12.364;2023-03-14T10:26:18;13.60;99.90
15259;DHT22;34462;51.368;12.364;2023-03-14T10:28:52;13.40;99.90
15259;DHT22;34462;51.368;12.364;2023-03-14T10:31:25;13.40;99.90
15259;DHT22;34462;51.368;12.364;2023-03-14T10:34:00;13.40;99.90
15259;DHT22;34462;51.368;12.364;2023-03-14T10:36:33;13.50;99.90
15259;DHT22;34462;51.368;12.364;2023-03-14T10:39:23;13.60;99.90
15259;DHT22;34462;51.368;12.364;2023-03-14T10:42:03;13.70;99.90
15259;DHT22;34462;51.368;12.364;2023-03-14T10:44:35;13.90;99.90
15259;DHT22;34462;51.368;12.364;2023-03-14T10:47:05;13.90;99.90
15259;DHT22;34462;51.368;12.364;2023-03-14T10:49:34;13.90;99.90
15259;DHT22;34462;51.368;12.364;2023-03-14T10:52:17;14.00;99.90
15259;DHT22;34462;51.368;12.364;2023-03-14T10:55:10;13.90;99.90
15259;DHT22;34462;51.368;12.364;2023-03-14T10:57:40;13.80;99.90
15259;DHT22;34462;51.368;12.364;2023-03-14T11:00:15;13.90;99.90
15259;DHT22;34462;51.368;12.364;2023-03-14T11:02:53;13.90;99.90
15259;DHT22;34462;51.368;12.364;2023-03-14T11:05:36;13.80;99.90
15259;DHT22;34462;51.368;12.364;2023-03-14T11:08:20;13.60;99.90
15259;DHT22;34462;51.368;12.364;2023-03-14T11:10:56;13.60;99.90
15259;DHT22;34462;51.368;12.364;2023-03-14T11:13:34;13.60;99.90
15259;DHT22;34462;51.368;12.364;2023-03-14T11:16:12;13.50;99.90
15259;DHT22;34462;51.368;12.364;2023-03-14T11:19:10;13.40;99.90
15259;DHT22;34462;51.368;12.364;2023-03-14T11:21:52;13.50;99.90
15259;DHT22;34462;51.368;12.364;2023-03-14T11:24:37;13.60;99.90
15259;DHT22;34462;51.368;12.364;2023-03-14T11:27:20;13.60;99.90
15259;DHT22;34462;51.368;12.364;2023-03-14T11:29:59;13.80;99.90
15259;DHT22;34462;51.368;12.364;2023-03-14T11:32:41;14.00;99.90
15259;DHT22;34462;51.368;12.364;2023-03-14T11:35:17;14.00;99.90
15259;DHT22;34462;51.368;12.364;2023-03-14T11:37:53;14.00;99.90
15259;DHT22;34462;51.368;12.364;2023-03-14T11:40:28;14.00;99.90
15259;DHT22;34462;51.368;12.364;2023-03-14T11:43:11;13.80;99.90
15259;DHT22;34462;51.368;12.364;2023-03-14T11:45:44;13.70;99.90
15259;DHT22;34462;51.368;12.364;2023-03-14T11:48:20;13.70;99.90
15259;DHT22;34462;51.368;12.364;2023-03-14T11:50:58;13.80;99.90
15259;DHT22;34462;51.368;12.364;2023-03-14T11:53:39;13.90;99.90
15259;DHT22;34462;51.368;12.364;2023-03-14T11:56:22;13.90;99.90
15259;DHT22;34462;51.368;12.364;2023-03-14T11:58:58;14.00;99.90
15259;DHT22;34462;51.368;12.364;2023-03-14T12:01:45;14.10;99.90
15259;DHT22;34462;51.368;12.364;2023-03-14T12:04:43;14.30;99.90
15259;DHT22;34462;51.368;12.364;2023-03-14T12:07:25;14.30;99.90
15259;DHT22;34462;51.368;12.364;2023-03-14T12:09:57;14.30;99.90
15259;DHT22;34462;51.368;12.364;2023-03-14T12:12:28;14.30;99.90
15259;DHT22;34462;51.368;12.364;2023-03-14T12:15:00;14.40;99.90
15259;DHT22;34462;51.368;12.364;2023-03-14T12:17:35;14.20;99.90
15259;DHT22;34462;51.368;12.364;2023-03-14T12:20:15;14.20;99.90
15259;DHT22;34462;51.368;12.364;2023-03-14T12:22:47;14.30;99.90
15259;DHT22;34462;51.368;12.364;2023-03-14T12:25:20;14.30;99.90
15259;DHT22;34462;51.368;12.364;2023-03-14T12:28:04;14.40;99.90
15259;DHT22;34462;51.368;12.364;2023-03-14T12:30:43;14.30;99.90
15259;DHT22;34462;51.368;12.364;2023-03-14T12:33:29;13.90;99.90
15259;DHT22;34462;51.368;12.364;2023-03-14T12:36:04;13.40;99.90
15259;DHT22;34462;51.368;12.364;2023-03-14T12:38:49;13.10;99.90
15259;DHT22;34462;51.368;12.364;2023-03-14T12:41:27;13.00;99.90
15259;DHT22;34462;51.368;12.364;2023-03-14T12:47:56;12.90;99.90
15259;DHT22;34462;51.368;12.364;2023-03-14T12:50:34;13.10;99.90
15259;DHT22;34462;51.368;12.364;2023-03-14T12:56:32;13.60;99.90
15259;DHT22;34462;51.368;12.364;2023-03-14T12:59:29;13.80;99.90
15259;DHT22;34462;51.368;12.364;2023-03-14T13:02:13;13.80;99.90
15259;DHT22;34462;51.368;12.364;2023-03-14T13:04:49;13.70;99.90
15259;DHT22;34462;51.368;12.364;2023-03-14T13:07:32;13.70;99.90
15259;DHT22;34462;51.368;12.364;2023-03-14T13:10:18;13.60;99.90
15259;DHT22;34462;51.368;12.364;2023-03-14T13:12:51;13.70;99.90
15259;DHT22;34462;51.368;12.364;2023-03-14T13:15:26;13.90;99.90
15259;DHT22;34462;51.368;12.364;2023-03-14T13:18:03;13.90;99.90
15259;DHT22;34462;51.368;12.364;2023-03-14T13:20:40;14.10;99.90
15259;DHT22;34462;51.368;12.364;2023-03-14T13:23:23;14.40;99.90
15259;DHT22;34462;51.368;12.364;2023-03-14T13:25:53;14.60;99.90
15259;DHT22;34462;51.368;12.364;2023-03-14T13:28:22;14.70;99.90
15259;DHT22;34462;51.368;12.364;2023-03-14T13:30:54;14.70;99.90
15259;DHT22;34462;51.368;12.364;2023-03-14T13:33:28;14.70;99.90
15259;DHT22;34462;51.368;12.364;2023-03-14T13:35:58;14.80;99.90
15259;DHT22;34462;51.368;12.364;2023-03-14T13:38:30;14.90;99.90
15259;DHT22;34462;51.368;12.364;2023-03-14T13:41:04;15.10;99.90
15259;DHT22;34462;51.368;12.364;2023-03-14T13:43:35;15.00;99.90
15259;DHT22;34462;51.368;12.364;2023-03-14T13:46:12;14.80;99.90
15259;DHT22;34462;51.368;12.364;2023-03-14T13:48:46;14.90;99.90
15259;DHT22;34462;51.368;12.364;2023-03-14T13:51:19;14.80;99.90
15259;DHT22;34462;51.368;12.364;2023-03-14T13:53:49;14.80;99.90
15259;DHT22;34462;51.368;12.364;2023-03-14T13:56:20;15.10;99.90
15259;DHT22;34462;51.368;12.364;2023-03-14T13:58:49;15.10;99.90
15259;DHT22;34462;51.368;12.364;2023-03-14T14:01:19;15.00;99.90
15259;DHT22;34462;51.368;12.364;2023-03-14T14:03:52;15.00;99.90
15259;DHT22;34462;51.368;12.364;2023-03-14T14:06:26;14.90;99.90
15259;DHT22;34462;51.368;12.364;2023-03-14T14:08:59;14.90;99.90
15259;DHT22;34462;51.368;12.364;2023-03-14T14:11:40;14.80;99.90
15259;DHT22;34462;51.368;12.364;2023-03-14T14:14:29;14.80;99.90
15259;DHT22;34462;51.368;12.364;2023-03-14T14:17:05;14.70;99.90
15259;DHT22;34462;51.368;12.364;2023-03-14T14:19:38;14.60;99.90
15259;DHT22;34462;51.368;12.364;2023-03-14T14:22:09;14.40;99.90
15259;DHT22;34462;51.368;12.364;2023-03-14T14:24:38;14.30;99.90
15259;DHT22;34462;51.368;12.364;2023-03-14T14:27:12;14.20;99.90
15259;DHT22;34462;51.368;12.364;2023-03-14T14:29:43;14.30;99.90
15259;DHT22;34462;51.368;12.364;2023-03-14T14:32:14;14.40;99.90
15259;DHT22;34462;51.368;12.364;2023-03-14T14:34:46;14.30;99.90
15259;DHT22;34462;51.368;12.364;2023-03-14T14:37:25;14.30;99.90
15259;DHT22;34462;51.368;12.364;2023-03-14T14:39:56;14.20;99.90
15259;DHT22;34462;51.368;12.364;2023-03-14T14:42:29;14.10;99.90
15259;DHT22;34462;51.368;12.364;2023-03-14T14:44:59;14.20;99.90
15259;DHT22;34462;51.368;12.364;2023-03-14T14:47:30;14.10;99.90
15259;DHT22;34462;51.368;12.364;2023-03-14T14:50:04;14.00;99.90
15259;DHT22;34462;51.368;12.364;2023-03-14T14:52:37;13.90;99.90
15259;DHT22;34462;51.368;12.364;2023-03-14T14:55:13;13.90;99.90
15259;DHT22;34462;51.368;12.364;2023-03-14T14:57:49;13.90;99.90
15259;DHT22;34462;51.368;12.364;2023-03-14T15:00:20;13.80;99.90
15259;DHT22;34462;51.368;12.364;2023-03-14T15:02:52;13.60;99.90
15259;DHT22;34462;51.368;12.364;2023-03-14T15:05:24;13.40;99.90
15259;DHT22;34462;51.368;12.364;2023-03-14T15:07:56;13.00;99.90
15259;DHT22;34462;51.368;12.364;2023-03-14T15:10:25;12.70;99.90
15259;DHT22;34462;51.368;12.364;2023-03-14T15:12:53;12.40;99.90
15259;DHT22;34462;51.368;12.364;2023-03-14T15:15:21;11.90;99.90
15259;DHT22;34462;51.368;12.364;2023-03-14T15:17:50;11.00;99.90
15259;DHT22;34462;51.368;12.364;2023-03-14T15:20:18;10.30;99.90
15259;DHT22;34462;51.368;12.364;2023-03-14T15:22:51;9.70;99.90
15259;DHT22;34462;51.368;12.364;2023-03-14T15:25:20;9.10;99.90
15259;DHT22;34462;51.368;12.364;2023-03-14T15:28:14;8.80;99.90
15259;DHT22;34462;51.368;12.364;2023-03-14T15:30:47;8.50;99.90
15259;DHT22;34462;51.368;12.364;2023-03-14T15:33:16;8.30;99.90
15259;DHT22;34462;51.368;12.364;2023-03-14T15:35:44;8.10;99.90
15259;DHT22;34462;51.368;12.364;2023-03-14T15:38:17;7.90;99.90
15259;DHT22;34462;51.368;12.364;2023-03-14T15:40:47;7.70;99.90
15259;DHT22;34462;51.368;12.364;2023-03-14T15:43:16;7.50;99.90
15259;DHT22;34462;51.368;12.364;2023-03-14T15:45:45;7.30;99.90
15259;DHT22;34462;51.368;12.364;2023-03-14T15:48:15;7.10;99.90
15259;DHT22;34462;51.368;12.364;2023-03-14T15:50:45;6.90;99.90
15259;DHT22;34462;51.368;12.364;2023-03-14T15:53:15;6.80;99.90